createdAt,value
2023-03-01T00:01:25.994Z,99.90
2023-03-01T00:03:53.890Z,99.90
2023-03-01T00:06:22.341Z,99.90
2023-03-01T00:08:49.864Z,99.90
2023-03-01T00:11:18.377Z,99.90
2023-03-01T00:13:49.429Z,99.90
2023-03-01T00:16:20.407Z,99.90
2023-03-01T00:18:47.792Z,99.90
2023-03-01T00:21:15.452Z,99.90
2023-03-01T00:23:42.518Z,99.90
2023-03-01T00:26:13.888Z,99.90
2023-03-01T00:28:41.117Z,99.90
2023-03-01T00:31:13.441Z,99.90
2023-03-01T00:33:40.917Z,99.90
2023-03-01T00:36:08.939Z,99.90
2023-03-01T00:38:46.584Z,99.90
2023-03-01T00:41:17.251Z,99.90
2023-03-01T00:43:44.787Z,99.90
2023-03-01T00:46:18.615Z,99.90
2023-03-01T00:48:45.890Z,99.90
2023-03-01T00:51:27.099Z,99.90
2023-03-01T00:53:57.697Z,99.90
2023-03-01T00:56:25.582Z,99.90
2023-03-01T00:58:53.136Z,99.90
2023-03-01T01:01:24.960Z,99.90
2023-03-01T01:03:57.217Z,99.90
2023-03-01T01:06:46.638Z,99.90
2023-03-01T01:09:19.784Z,99.90
2023-03-01T01:11:50.360Z,99.90
2023-03-01T01:14:19.441Z,99.90
2023-03-01T01:16:46.527Z,99.90
2023-03-01T01:19:14.402Z,99.90
2023-03-01T01:21:44.111Z,99.90
2023-03-01T01:24:11.452Z,99.90
2023-03-01T01:26:39.027Z,99.90
2023-03-01T01:29:06.485Z,99.90
2023-03-01T01:31:35.852Z,99.90
2023-03-01T01:34:05.825Z,99.90
2023-03-01T01:36:33.952Z,99.90
2023-03-01T01:39:01.602Z,99.90
2023-03-01T01:41:30.430Z,99.90
2023-03-01T01:44:21.819Z,99.90
2023-03-01T01:46:54.188Z,99.90
2023-03-01T01:49:52.404Z,99.90
2023-03-01T01:52:36.866Z,99.90
2023-03-01T01:55:13.061Z,99.90
2023-03-01T01:57:45.940Z,99.90
2023-03-01T02:00:21.524Z,99.90
2023-03-01T02:02:53.000Z,99.90
2023-03-01T02:05:55.387Z,99.90
2023-03-01T02:08:28.206Z,99.90
2023-03-01T02:10:57.215Z,99.90
2023-03-01T02:13:24.968Z,99.90
2023-03-01T02:15:52.036Z,99.90
2023-03-01T02:18:21.630Z,99.90
2023-03-01T02:21:06.728Z,99.90
2023-03-01T02:23:34.557Z,99.90
2023-03-01T02:26:26.865Z,99.90
2023-03-01T02:28:54.021Z,99.90
2023-03-01T02:31:41.070Z,99.90
2023-03-01T02:34:27.505Z,99.90
2023-03-01T02:37:08.415Z,99.90
2023-03-01T02:39:44.113Z,99.90
2023-03-01T02:42:15.936Z,99.90
2023-03-01T02:44:43.032Z,99.90
2023-03-01T02:47:10.040Z,99.90
2023-03-01T02:49:38.637Z,99.90
2023-03-01T02:52:36.455Z,99.90
2023-03-01T02:55:06.908Z,99.90
2023-03-01T02:57:36.811Z,99.90
2023-03-01T03:00:20.290Z,99.90
2023-03-01T03:02:54.045Z,99.90
2023-03-01T03:05:28.863Z,99.90
2023-03-01T03:07:56.594Z,99.90
2023-03-01T03:10:34.399Z,99.90
2023-03-01T03:13:14.148Z,99.90
2023-03-01T03:15:43.914Z,99.90
2023-03-01T03:18:16.600Z,99.90
2023-03-01T03:20:45.033Z,99.90
2023-03-01T03:23:12.056Z,99.90
2023-03-01T03:25:39.159Z,99.90
2023-03-01T03:28:11.182Z,99.90
2023-03-01T03:30:41.729Z,99.90
2023-03-01T03:33:13.435Z,99.90
2023-03-01T03:35:51.197Z,99.90
2023-03-01T03:38:22.725Z,99.90
2023-03-01T03:41:04.554Z,99.90
2023-03-01T03:43:34.234Z,99.90
2023-03-01T03:46:01.711Z,99.90
2023-03-01T03:48:28.854Z,99.90
2023-03-01T03:50:57.562Z,99.90
2023-03-01T03:53:27.268Z,99.90
2023-03-01T03:55:54.735Z,99.90
2023-03-01T03:58:24.457Z,99.90
2023-03-01T04:00:56.832Z,99.90
2023-03-01T04:03:25.900Z,99.90
2023-03-01T04:05:53.747Z,99.90
2023-03-01T04:08:23.452Z,99.90
2023-03-01T04:10:53.593Z,99.90
2023-03-01T04:13:23.469Z,99.90
2023-03-01T04:15:54.906Z,99.90
2023-03-01T04:18:24.837Z,99.90
2023-03-01T04:20:53.261Z,99.90
2023-03-01T04:23:21.709Z,99.90
2023-03-01T04:25:58.027Z,99.90
2023-03-01T04:28:26.551Z,99.90
2023-03-01T04:30:55.245Z,99.90
2023-03-01T04:33:23.685Z,99.90
2023-03-01T04:35:51.004Z,99.90
2023-03-01T04:38:22.301Z,99.90
2023-03-01T04:40:49.438Z,99.90
2023-03-01T04:43:16.625Z,99.90
2023-03-01T04:45:43.746Z,99.90
2023-03-01T04:48:11.007Z,99.90
2023-03-01T04:50:37.954Z,99.90
2023-03-01T04:53:05.137Z,99.90
2023-03-01T04:55:32.578Z,99.90
2023-03-01T04:57:59.914Z,99.90
2023-03-01T05:00:27.279Z,99.90
2023-03-01T05:03:01.516Z,99.90
2023-03-01T05:05:35.346Z,99.90
2023-03-01T05:08:05.861Z,99.90
2023-03-01T05:10:36.297Z,99.90
2023-03-01T05:13:04.578Z,99.90
2023-03-01T05:15:32.970Z,99.90
2023-03-01T05:18:01.675Z,99.90
2023-03-01T05:20:30.880Z,99.90
2023-03-01T05:23:00.731Z,99.90
2023-03-01T05:25:28.442Z,99.90
2023-03-01T05:27:55.369Z,99.90
2023-03-01T05:30:22.668Z,99.90
2023-03-01T05:32:56.793Z,99.90
2023-03-01T05:35:24.984Z,99.90
2023-03-01T05:37:52.650Z,99.90
2023-03-01T05:40:22.854Z,99.90
2023-03-01T05:42:56.296Z,99.90
2023-03-01T05:45:25.915Z,99.90
2023-03-01T05:47:53.397Z,99.90
2023-03-01T05:50:26.246Z,99.90
2023-03-01T05:53:00.267Z,99.90
2023-03-01T05:55:29.249Z,99.90
2023-03-01T05:57:56.606Z,99.90
2023-03-01T06:00:23.801Z,99.90
2023-03-01T06:02:52.782Z,99.90
2023-03-01T06:05:20.157Z,99.90
2023-03-01T06:07:47.305Z,99.90
2023-03-01T06:10:15.399Z,99.90
2023-03-01T06:12:44.553Z,99.90
2023-03-01T06:15:14.941Z,99.90
2023-03-01T06:17:46.028Z,99.90
2023-03-01T06:20:17.571Z,99.90
2023-03-01T06:22:45.360Z,99.90
2023-03-01T06:25:15.849Z,99.90
2023-03-01T06:27:43.381Z,99.90
2023-03-01T06:30:13.486Z,99.90
2023-03-01T06:32:43.085Z,99.90
2023-03-01T06:35:18.927Z,99.90
2023-03-01T06:37:48.427Z,99.90
2023-03-01T06:40:17.213Z,99.90
2023-03-01T06:42:52.291Z,99.90
2023-03-01T06:45:21.785Z,99.90
2023-03-01T06:47:48.811Z,99.90
2023-03-01T06:50:16.866Z,99.90
2023-03-01T06:55:14.292Z,99.90
2023-03-01T06:57:41.356Z,99.90
2023-03-01T07:00:09.530Z,99.90
2023-03-01T07:02:36.672Z,99.90
2023-03-01T07:05:03.761Z,99.90
2023-03-01T07:07:30.748Z,99.90
2023-03-01T07:09:57.648Z,99.90
2023-03-01T07:12:24.574Z,99.90
2023-03-01T07:14:51.477Z,99.90
2023-03-01T07:17:18.429Z,99.90
2023-03-01T07:19:46.057Z,99.90
2023-03-01T07:22:13.069Z,99.90
2023-03-01T07:24:40.039Z,99.90
2023-03-01T07:27:06.882Z,99.90
2023-03-01T07:29:34.007Z,99.90
2023-03-01T07:32:01.086Z,99.90
2023-03-01T07:34:28.151Z,99.90
2023-03-01T07:36:55.884Z,99.90
2023-03-01T07:39:24.105Z,99.90
2023-03-01T07:41:51.963Z,99.90
2023-03-01T07:44:18.996Z,99.90
2023-03-01T07:46:45.870Z,99.90
2023-03-01T07:49:12.720Z,99.90
2023-03-01T07:51:39.600Z,99.90
2023-03-01T07:54:06.635Z,99.90
2023-03-01T07:56:33.921Z,99.90
2023-03-01T07:59:01.218Z,99.90
2023-03-01T08:01:28.447Z,99.90
2023-03-01T08:03:55.475Z,99.90
2023-03-01T08:06:22.520Z,99.90
2023-03-01T08:08:49.565Z,99.90
2023-03-01T08:11:17.018Z,99.90
2023-03-01T08:13:44.920Z,99.10
2023-03-01T08:16:16.283Z,99.10
2023-03-01T08:18:44.354Z,98.50
2023-03-01T08:21:15.272Z,98.20
2023-03-01T08:23:42.795Z,98.50
2023-03-01T08:26:13.062Z,98.60
2023-03-01T08:28:41.171Z,98.70
2023-03-01T08:31:36.802Z,98.70
2023-03-01T08:34:11.030Z,98.20
2023-03-01T08:36:41.452Z,97.70
2023-03-01T08:39:10.801Z,97.20
2023-03-01T08:41:39.070Z,97.40
2023-03-01T08:44:07.173Z,96.90
2023-03-01T08:46:39.252Z,96.90
2023-03-01T08:49:17.746Z,96.60
2023-03-01T08:51:46.546Z,97.40
2023-03-01T08:54:20.276Z,96.60
2023-03-01T08:56:48.403Z,96.30
2023-03-01T08:59:18.170Z,96.50
2023-03-01T09:01:45.216Z,95.50
2023-03-01T09:04:13.785Z,95.40
2023-03-01T09:06:40.804Z,95.20
2023-03-01T09:09:15.928Z,95.20
2023-03-01T09:11:44.595Z,95.10
2023-03-01T09:14:13.757Z,94.80
2023-03-01T09:16:41.046Z,94.90
2023-03-01T09:19:08.038Z,95.00
2023-03-01T09:21:40.587Z,94.60
2023-03-01T09:24:14.882Z,94.30
2023-03-01T09:26:42.319Z,94.30
2023-03-01T09:29:10.735Z,95.40
2023-03-01T09:31:37.886Z,94.90
2023-03-01T09:34:05.277Z,93.70
2023-03-01T09:36:32.736Z,94.50
2023-03-01T09:39:00.934Z,93.80
2023-03-01T09:41:43.720Z,94.30
2023-03-01T09:44:35.038Z,93.30
2023-03-01T09:47:03.453Z,92.40
2023-03-01T09:49:36.480Z,92.20
2023-03-01T09:52:29.543Z,90.80
2023-03-01T09:54:59.605Z,88.40
2023-03-01T09:57:50.092Z,88.10
2023-03-01T10:00:38.219Z,87.40
2023-03-01T10:03:26.173Z,86.30
2023-03-01T10:06:03.463Z,82.90
2023-03-01T10:08:39.760Z,82.20
2023-03-01T10:11:21.663Z,82.30
2023-03-01T10:14:10.954Z,81.50
2023-03-01T10:16:59.964Z,79.20
2023-03-01T10:19:46.822Z,76.20
2023-03-01T10:22:30.679Z,74.20
2023-03-01T10:25:03.759Z,72.60
2023-03-01T10:27:54.083Z,73.90
2023-03-01T10:30:40.529Z,70.20
2023-03-01T10:33:30.943Z,68.60
2023-03-01T10:35:58.170Z,67.90
2023-03-01T10:38:25.986Z,66.00
2023-03-01T10:41:07.513Z,66.40
2023-03-01T10:44:01.222Z,65.70
2023-03-01T10:46:38.686Z,65.40
2023-03-01T10:49:26.555Z,65.60
2023-03-01T10:51:55.105Z,64.00
2023-03-01T10:54:33.620Z,65.30
2023-03-01T10:57:04.034Z,67.10
2023-03-01T10:59:39.341Z,65.90
2023-03-01T11:02:40.309Z,63.80
2023-03-01T11:05:31.023Z,64.40
2023-03-01T11:08:00.146Z,63.60
2023-03-01T11:10:29.717Z,65.80
2023-03-01T11:13:17.156Z,64.70
2023-03-01T11:16:07.981Z,63.40
2023-03-01T11:18:46.855Z,62.60
2023-03-01T11:21:16.914Z,64.70
2023-03-01T11:23:46.911Z,65.00
2023-03-01T11:26:16.377Z,65.60
2023-03-01T11:28:45.946Z,67.40
2023-03-01T11:31:13.777Z,65.50
2023-03-01T11:33:59.147Z,64.70
2023-03-01T11:36:54.845Z,65.60
2023-03-01T11:39:37.790Z,64.50
2023-03-01T11:42:19.085Z,64.10
2023-03-01T11:44:53.266Z,63.90
2023-03-01T11:48:00.614Z,63.20
2023-03-01T11:50:39.567Z,60.80
2023-03-01T11:53:32.779Z,59.70
2023-03-01T11:56:25.558Z,58.20
2023-03-01T11:59:30.318Z,57.90
2023-03-01T12:02:09.412Z,57.40
2023-03-01T12:05:15.819Z,58.10
2023-03-01T12:08:09.174Z,56.50
2023-03-01T12:10:51.090Z,56.70
2023-03-01T12:13:42.654Z,57.40
2023-03-01T12:16:41.969Z,57.00
2023-03-01T12:19:44.236Z,57.40
2023-03-01T12:22:25.597Z,57.80
2023-03-01T12:25:23.893Z,56.30
2023-03-01T12:28:12.046Z,54.70
2023-03-01T12:31:06.157Z,54.00
2023-03-01T12:33:46.805Z,54.90
2023-03-01T12:36:32.536Z,54.70
2023-03-01T12:39:57.340Z,54.00
2023-03-01T12:42:40.774Z,55.10
2023-03-01T12:45:31.927Z,55.70
2023-03-01T12:48:26.041Z,54.90
2023-03-01T12:50:55.618Z,55.10
2023-03-01T12:53:41.544Z,54.60
2023-03-01T12:56:14.385Z,53.90
2023-03-01T12:59:15.755Z,54.70
2023-03-01T13:01:54.576Z,54.60
2023-03-01T13:04:46.505Z,54.80
2023-03-01T13:07:16.287Z,54.60
2023-03-01T13:09:55.941Z,54.50
2023-03-01T13:12:53.954Z,54.80
2023-03-01T13:15:23.843Z,54.30
2023-03-01T13:17:53.940Z,53.30
2023-03-01T13:20:31.051Z,53.40
2023-03-01T13:23:24.349Z,53.20
2023-03-01T13:26:09.175Z,53.10
2023-03-01T13:28:50.632Z,52.60
2023-03-01T13:31:20.187Z,52.90
2023-03-01T13:33:51.739Z,53.20
2023-03-01T13:36:32.436Z,53.30
2023-03-01T13:39:34.976Z,53.40
2023-03-01T13:42:02.505Z,53.00
2023-03-01T13:44:39.762Z,54.00
2023-03-01T13:47:14.820Z,53.40
2023-03-01T13:50:00.376Z,54.10
2023-03-01T13:52:49.228Z,54.70
2023-03-01T13:55:17.696Z,55.50
2023-03-01T13:57:58.297Z,55.40
2023-03-01T14:00:40.371Z,56.10
2023-03-01T14:03:25.839Z,56.30
2023-03-01T14:06:21.066Z,57.40
2023-03-01T14:08:52.712Z,57.40
2023-03-01T14:12:02.340Z,57.20
2023-03-01T14:15:00.189Z,58.20
2023-03-01T14:18:14.870Z,58.80
2023-03-01T14:20:52.183Z,59.10
2023-03-01T14:23:25.072Z,59.90
2023-03-01T14:25:58.042Z,60.20
2023-03-01T14:28:31.857Z,60.00
2023-03-01T14:31:01.555Z,61.40
2023-03-01T14:33:37.355Z,62.80
2023-03-01T14:36:05.717Z,61.20
2023-03-01T14:38:46.046Z,61.50
2023-03-01T14:41:17.565Z,62.60
2023-03-01T14:43:56.804Z,62.70
2023-03-01T14:46:44.932Z,63.50
2023-03-01T14:49:22.618Z,62.10
2023-03-01T14:52:19.821Z,64.70
2023-03-01T14:54:55.875Z,62.40
2023-03-01T14:57:26.850Z,62.90
2023-03-01T15:00:07.510Z,64.80
2023-03-01T15:02:35.522Z,63.90
2023-03-01T15:05:09.199Z,63.60
2023-03-01T15:07:42.002Z,63.50
2023-03-01T15:10:21.828Z,65.10
2023-03-01T15:12:49.043Z,63.40
2023-03-01T15:15:23.724Z,64.60
2023-03-01T15:17:57.049Z,63.90
2023-03-01T15:20:28.369Z,64.00
2023-03-01T15:22:57.053Z,66.20
2023-03-01T15:25:30.220Z,66.10
2023-03-01T15:28:00.579Z,66.50
2023-03-01T15:30:38.693Z,66.60
2023-03-01T15:33:31.134Z,66.60
2023-03-01T15:36:04.712Z,63.00
2023-03-01T15:38:57.611Z,60.80
2023-03-01T15:41:32.341Z,60.20
2023-03-01T15:44:01.674Z,59.70
2023-03-01T15:46:38.634Z,61.90
2023-03-01T15:49:54.476Z,62.30
2023-03-01T15:52:31.182Z,64.20
2023-03-01T15:55:05.136Z,65.20
2023-03-01T15:57:32.260Z,65.50
2023-03-01T15:59:59.183Z,66.70
2023-03-01T16:02:26.288Z,69.20
2023-03-01T16:04:54.695Z,68.60
2023-03-01T16:07:23.923Z,69.50
2023-03-01T16:09:54.657Z,72.00
2023-03-01T16:12:26.545Z,70.60
2023-03-01T16:14:57.186Z,72.30
2023-03-01T16:17:26.233Z,73.80
2023-03-01T16:19:53.264Z,74.60
2023-03-01T16:22:25.872Z,75.60
2023-03-01T16:24:52.903Z,77.20
2023-03-01T16:27:21.416Z,78.00
2023-03-01T16:29:48.376Z,80.60
2023-03-01T16:32:15.333Z,80.20
2023-03-01T16:34:42.368Z,81.80
2023-03-01T16:37:09.438Z,82.30
2023-03-01T16:39:39.768Z,82.40
2023-03-01T16:42:06.640Z,82.60
2023-03-01T16:44:33.569Z,83.10
2023-03-01T16:47:00.472Z,84.20
2023-03-01T16:49:27.360Z,86.50
2023-03-01T16:51:57.295Z,87.20
2023-03-01T16:54:24.297Z,86.20
2023-03-01T16:56:51.500Z,86.80
2023-03-01T16:59:20.339Z,87.30
2023-03-01T17:01:48.383Z,88.70
2023-03-01T17:04:15.284Z,90.70
2023-03-01T17:06:42.324Z,91.10
2023-03-01T17:09:10.361Z,91.40
2023-03-01T17:11:37.245Z,91.40
2023-03-01T17:14:04.174Z,91.70
2023-03-01T17:16:31.134Z,92.20
2023-03-01T17:18:58.238Z,92.30
2023-03-01T17:21:25.293Z,93.30
2023-03-01T17:23:58.098Z,92.70
2023-03-01T17:26:25.415Z,94.50
2023-03-01T17:28:53.059Z,94.20
2023-03-01T17:31:20.761Z,94.30
2023-03-01T17:33:47.862Z,94.40
2023-03-01T17:36:14.751Z,94.40
2023-03-01T17:38:41.746Z,94.70
2023-03-01T17:41:10.821Z,94.50
2023-03-01T17:43:38.024Z,94.80
2023-03-01T17:46:05.063Z,96.10
2023-03-01T17:48:32.082Z,96.10
2023-03-01T17:50:59.007Z,95.10
2023-03-01T17:53:25.987Z,95.20
2023-03-01T17:56:01.578Z,95.20
2023-03-01T17:58:29.314Z,96.70
2023-03-01T18:00:56.359Z,95.50
2023-03-01T18:03:23.374Z,95.60
2023-03-01T18:05:50.843Z,95.80
2023-03-01T18:08:17.746Z,95.80
2023-03-01T18:10:44.635Z,95.80
2023-03-01T18:13:14.779Z,96.30
2023-03-01T18:15:41.690Z,95.90
2023-03-01T18:18:08.595Z,96.30
2023-03-01T18:20:35.592Z,96.00
2023-03-01T18:23:02.474Z,96.40
2023-03-01T18:25:29.356Z,97.50
2023-03-01T18:27:56.312Z,96.60
2023-03-01T18:30:23.168Z,96.70
2023-03-01T18:32:56.173Z,96.70
2023-03-01T18:35:24.268Z,96.70
2023-03-01T18:37:51.328Z,96.90
2023-03-01T18:40:18.348Z,98.10
2023-03-01T18:42:48.815Z,97.30
2023-03-01T18:45:17.746Z,96.90
2023-03-01T18:47:44.662Z,96.80
2023-03-01T18:50:11.969Z,96.80
2023-03-01T18:52:38.857Z,96.90
2023-03-01T18:55:06.111Z,96.90
2023-03-01T18:57:32.996Z,96.50
2023-03-01T18:59:59.836Z,97.60
2023-03-01T19:02:26.795Z,96.80
2023-03-01T19:04:53.708Z,96.60
2023-03-01T19:07:21.646Z,96.60
2023-03-01T19:09:48.801Z,97.00
2023-03-01T19:12:15.748Z,97.10
2023-03-01T19:14:42.621Z,97.30
2023-03-01T19:17:09.873Z,97.40
2023-03-01T19:19:36.849Z,97.50
2023-03-01T19:22:06.028Z,97.50
2023-03-01T19:24:34.581Z,97.50
2023-03-01T19:27:01.571Z,97.60
2023-03-01T19:29:28.638Z,97.90
2023-03-01T19:31:55.578Z,98.20
2023-03-01T19:34:24.461Z,98.00
2023-03-01T19:36:51.416Z,99.00
2023-03-01T19:39:18.413Z,98.50
2023-03-01T19:41:46.535Z,98.90
2023-03-01T19:44:14.548Z,99.00
2023-03-01T19:46:41.837Z,99.50
2023-03-01T19:49:08.921Z,99.30
2023-03-01T19:51:39.019Z,99.30
2023-03-01T19:54:06.489Z,99.40
2023-03-01T19:56:34.567Z,99.90
2023-03-01T19:59:04.203Z,99.90
2023-03-01T20:01:34.080Z,99.80
2023-03-01T20:04:02.451Z,99.90
2023-03-01T20:06:30.717Z,99.90
2023-03-01T20:09:04.215Z,99.90
2023-03-01T20:11:38.867Z,99.90
2023-03-01T20:14:06.848Z,99.60
2023-03-01T20:16:34.116Z,99.70
2023-03-01T20:19:01.690Z,99.70
2023-03-01T20:21:28.824Z,99.90
2023-03-01T20:23:55.985Z,99.90
2023-03-01T20:26:25.439Z,99.90
2023-03-01T20:28:55.445Z,99.90
2023-03-01T20:31:28.670Z,99.90
2023-03-01T20:33:59.873Z,99.90
2023-03-01T20:36:27.829Z,99.90
2023-03-01T20:38:54.831Z,99.90
2023-03-01T20:41:22.161Z,99.90
2023-03-01T20:43:54.551Z,99.90
2023-03-01T20:46:23.899Z,99.90
2023-03-01T20:48:51.828Z,99.90
2023-03-01T20:51:19.774Z,99.90
2023-03-01T20:53:46.880Z,99.90
2023-03-01T20:56:16.265Z,99.90
2023-03-01T20:58:44.383Z,99.90
2023-03-01T21:01:20.944Z,99.90
2023-03-01T21:03:48.024Z,99.90
2023-03-01T21:06:15.341Z,99.90
2023-03-01T21:08:42.321Z,99.90
2023-03-01T21:11:09.796Z,99.90
2023-03-01T21:13:36.816Z,99.90
2023-03-01T21:16:07.895Z,99.90
2023-03-01T21:18:36.942Z,99.90
2023-03-01T21:21:06.331Z,99.90
2023-03-01T21:23:40.740Z,99.90
2023-03-01T21:26:17.347Z,99.90
2023-03-01T21:28:44.281Z,99.90
2023-03-01T21:31:27.830Z,99.90
2023-03-01T21:33:58.736Z,99.90
2023-03-01T21:36:28.910Z,99.90
2023-03-01T21:38:56.391Z,99.90
2023-03-01T21:41:33.356Z,99.90
2023-03-01T21:44:02.987Z,99.90
2023-03-01T21:46:36.447Z,99.90
2023-03-01T21:49:04.788Z,99.90
2023-03-01T21:51:33.045Z,99.90
2023-03-01T21:54:01.395Z,99.90
2023-03-01T21:56:32.036Z,99.90
2023-03-01T21:58:59.392Z,99.90
2023-03-01T22:01:28.533Z,99.90
2023-03-01T22:04:00.802Z,99.90
2023-03-01T22:06:38.167Z,99.90
2023-03-01T22:09:17.160Z,99.90
2023-03-01T22:11:48.911Z,99.90
2023-03-01T22:14:18.276Z,99.90
2023-03-01T22:16:47.873Z,99.90
2023-03-01T22:19:16.788Z,99.90
2023-03-01T22:21:49.181Z,99.90
2023-03-01T22:24:22.999Z,99.90
2023-03-01T22:26:51.528Z,99.90
2023-03-01T22:29:24.032Z,99.90
2023-03-01T22:31:51.741Z,99.90
2023-03-01T22:34:19.317Z,99.90
2023-03-01T22:36:47.005Z,99.90
2023-03-01T22:39:16.699Z,99.90
2023-03-01T22:41:46.381Z,99.90
2023-03-01T22:44:19.927Z,99.90
2023-03-01T22:46:47.418Z,99.90
2023-03-01T22:49:15.592Z,99.90
2023-03-01T22:51:43.750Z,99.90
2023-03-01T22:54:11.418Z,99.90
2023-03-01T22:56:39.700Z,99.90
2023-03-01T22:59:16.067Z,99.90
2023-03-01T23:01:48.080Z,99.90
2023-03-01T23:04:16.988Z,99.90
2023-03-01T23:06:55.881Z,99.90
2023-03-01T23:09:32.741Z,99.90
2023-03-01T23:12:02.333Z,99.90
2023-03-01T23:14:32.189Z,99.90
2023-03-01T23:17:02.794Z,99.90
2023-03-01T23:19:30.625Z,99.90
2023-03-01T23:21:58.112Z,99.90
2023-03-01T23:24:31.478Z,99.90
2023-03-01T23:27:01.252Z,99.90
2023-03-01T23:29:28.568Z,99.90
2023-03-01T23:31:57.438Z,99.90
2023-03-01T23:34:26.081Z,99.90
2023-03-01T23:36:54.417Z,99.90
2023-03-01T23:39:22.059Z,99.90
2023-03-01T23:41:49.026Z,99.90
2023-03-01T23:44:19.827Z,99.90
2023-03-01T23:46:48.606Z,99.90
2023-03-01T23:49:19.160Z,99.90
2023-03-01T23:51:49.712Z,99.90
2023-03-01T23:54:21.122Z,99.90
2023-03-01T23:56:48.128Z,99.90
2023-03-01T23:59:20.128Z,99.90
